createdAt,value
2023-04-17T00:00:10.330Z,13.43
2023-04-17T00:02:40.084Z,12.90
2023-04-17T00:05:11.943Z,13.30
2023-04-17T00:07:41.263Z,13.87
2023-04-17T00:10:15.050Z,13.07
2023-04-17T00:12:43.460Z,13.80
2023-04-17T00:15:12.112Z,13.30
2023-04-17T00:17:41.464Z,13.90
2023-04-17T00:20:12.421Z,13.07
2023-04-17T00:22:43.080Z,13.23
2023-04-17T00:25:13.454Z,13.60
2023-04-17T00:27:42.077Z,13.90
2023-04-17T00:30:14.333Z,14.23
2023-04-17T00:32:42.544Z,12.27
2023-04-17T00:35:12.909Z,13.53
2023-04-17T00:37:42.429Z,13.30
2023-04-17T00:40:12.510Z,12.90
2023-04-17T00:42:42.408Z,12.77
2023-04-17T00:45:12.542Z,14.17
2023-04-17T00:47:41.498Z,13.70
2023-04-17T00:50:10.859Z,13.43
2023-04-17T00:52:41.476Z,13.43
2023-04-17T00:55:10.177Z,13.87
2023-04-17T00:57:39.435Z,13.13
2023-04-17T01:00:10.350Z,13.20
2023-04-17T01:02:40.728Z,12.83
2023-04-17T01:05:09.762Z,12.30
2023-04-17T01:07:41.514Z,12.93
2023-04-17T01:10:10.627Z,12.83
2023-04-17T01:12:38.770Z,13.33
2023-04-17T01:15:08.492Z,12.60
2023-04-17T01:17:36.766Z,12.23
2023-04-17T01:20:07.797Z,12.77
2023-04-17T01:22:37.528Z,13.03
2023-04-17T01:25:08.383Z,13.70
2023-04-17T01:27:39.485Z,13.93
2023-04-17T01:30:11.362Z,14.17
2023-04-17T01:32:46.224Z,12.43
2023-04-17T01:35:19.141Z,14.20
2023-04-17T01:37:47.275Z,13.30
2023-04-17T01:40:17.474Z,13.53
2023-04-17T01:42:50.448Z,12.77
2023-04-17T01:45:18.665Z,14.60
2023-04-17T01:47:47.275Z,13.97
2023-04-17T01:50:15.666Z,14.57
2023-04-17T01:52:43.741Z,13.50
2023-04-17T01:55:12.479Z,13.70
2023-04-17T01:57:42.666Z,13.13
2023-04-17T02:00:11.674Z,13.83
2023-04-17T02:02:44.489Z,14.07
2023-04-17T02:05:12.767Z,14.13
2023-04-17T02:07:41.508Z,13.80
2023-04-17T02:10:10.372Z,13.73
2023-04-17T02:12:40.479Z,13.23
2023-04-17T02:15:11.522Z,13.20
2023-04-17T02:17:39.780Z,14.03
2023-04-17T02:20:09.275Z,13.97
2023-04-17T02:22:37.404Z,14.10
2023-04-17T02:25:06.471Z,14.27
2023-04-17T02:27:38.517Z,14.00
2023-04-17T02:30:11.774Z,13.43
2023-04-17T02:32:42.428Z,14.20
2023-04-17T02:35:11.127Z,14.40
2023-04-17T02:37:39.595Z,14.07
2023-04-17T02:40:10.149Z,14.47
2023-04-17T02:42:39.128Z,13.83
2023-04-17T02:45:10.548Z,14.43
2023-04-17T02:47:40.197Z,13.83
2023-04-17T02:50:12.649Z,14.07
2023-04-17T02:52:51.916Z,14.33
2023-04-17T02:55:22.365Z,13.90
2023-04-17T02:57:53.536Z,14.60
2023-04-17T03:00:22.982Z,13.80
2023-04-17T03:02:53.674Z,14.33
2023-04-17T03:05:23.295Z,13.43
2023-04-17T03:07:55.529Z,13.50
2023-04-17T03:10:26.257Z,14.50
2023-04-17T03:12:56.513Z,15.47
2023-04-17T03:15:24.726Z,13.57
2023-04-17T03:17:54.863Z,14.40
2023-04-17T03:20:27.536Z,15.07
2023-04-17T03:22:57.523Z,14.20
2023-04-17T03:25:25.734Z,14.43
2023-04-17T03:27:54.596Z,14.63
2023-04-17T03:30:26.223Z,14.83
2023-04-17T03:33:00.670Z,14.03
2023-04-17T03:35:31.316Z,14.60
2023-04-17T03:38:07.528Z,14.70
2023-04-17T03:40:36.155Z,14.97
2023-04-17T03:43:06.888Z,14.97
2023-04-17T03:45:36.074Z,14.63
2023-04-17T03:48:07.381Z,14.63
2023-04-17T03:50:37.554Z,14.90
2023-04-17T03:53:05.897Z,14.03
2023-04-17T03:55:35.569Z,14.37
2023-04-17T03:58:04.333Z,14.37
2023-04-17T04:00:34.893Z,14.40
2023-04-17T04:03:10.322Z,14.13
2023-04-17T04:05:42.516Z,13.83
2023-04-17T04:08:12.564Z,14.20
2023-04-17T04:10:48.310Z,13.90
2023-04-17T04:13:23.742Z,14.80
2023-04-17T04:15:56.853Z,14.50
2023-04-17T04:18:29.590Z,14.57
2023-04-17T04:20:57.825Z,14.03
2023-04-17T04:23:38.583Z,14.60
2023-04-17T04:26:06.885Z,14.67
2023-04-17T04:28:44.551Z,13.00
2023-04-17T04:31:22.595Z,13.60
2023-04-17T04:33:55.332Z,14.27
2023-04-17T04:36:28.031Z,13.97
2023-04-17T04:39:07.051Z,15.43
2023-04-17T04:41:38.447Z,14.63
2023-04-17T04:44:10.007Z,15.03
2023-04-17T04:46:43.181Z,14.33
2023-04-17T04:49:14.317Z,13.37
2023-04-17T04:51:42.532Z,14.20
2023-04-17T04:54:10.815Z,14.13
2023-04-17T04:56:49.162Z,13.40
2023-04-17T04:59:17.494Z,14.37
2023-04-17T05:01:52.273Z,15.63
2023-04-17T05:04:27.089Z,14.77
2023-04-17T05:07:00.150Z,14.07
2023-04-17T05:09:29.013Z,14.50
2023-04-17T05:11:59.659Z,13.97
2023-04-17T05:14:28.700Z,15.50
2023-04-17T05:16:57.557Z,15.37
2023-04-17T05:19:27.513Z,14.47
2023-04-17T05:22:01.084Z,14.57
2023-04-17T05:24:31.120Z,14.93
2023-04-17T05:27:01.839Z,14.07
2023-04-17T05:29:32.432Z,15.33
2023-04-17T05:32:00.843Z,15.57
2023-04-17T05:34:53.462Z,14.63
2023-04-17T05:37:25.936Z,14.50
2023-04-17T05:39:54.183Z,15.70
2023-04-17T05:42:22.402Z,14.90
2023-04-17T05:44:57.441Z,14.50
2023-04-17T05:47:25.788Z,15.07
2023-04-17T05:49:58.199Z,15.40
2023-04-17T05:52:29.189Z,15.17
2023-04-17T05:54:57.914Z,15.97
2023-04-17T05:57:26.766Z,16.13
2023-04-17T05:59:55.045Z,17.53
2023-04-17T06:02:23.521Z,16.07
2023-04-17T06:04:52.006Z,16.43
2023-04-17T06:07:24.609Z,16.93
2023-04-17T06:09:54.098Z,16.67
2023-04-17T06:12:22.334Z,15.50
2023-04-17T06:14:50.675Z,16.20
2023-04-17T06:17:24.332Z,16.83
2023-04-17T06:19:52.748Z,15.70
2023-04-17T06:22:22.165Z,15.67
2023-04-17T06:24:50.420Z,15.60
2023-04-17T06:27:18.936Z,15.83
2023-04-17T06:29:47.059Z,17.10
2023-04-17T06:32:19.256Z,15.40
2023-04-17T06:37:30.694Z,14.60
2023-04-17T06:39:58.995Z,14.67
2023-04-17T06:42:28.178Z,13.90
2023-04-17T06:45:04.265Z,15.30
2023-04-17T06:47:32.524Z,14.20
2023-04-17T06:50:00.777Z,14.83
2023-04-17T06:52:30.341Z,14.97
2023-04-17T06:55:03.762Z,14.67
2023-04-17T06:57:33.999Z,15.00
2023-04-17T07:00:02.694Z,14.90
2023-04-17T07:02:30.912Z,15.03
2023-04-17T07:04:59.521Z,15.30
2023-04-17T07:07:31.160Z,15.50
2023-04-17T07:10:00.728Z,17.67
2023-04-17T07:12:28.898Z,15.50
2023-04-17T07:14:57.031Z,15.50
2023-04-17T07:17:25.151Z,15.53
2023-04-17T07:19:53.429Z,14.20
2023-04-17T07:22:21.695Z,15.57
2023-04-17T07:24:49.937Z,14.47
2023-04-17T07:27:22.813Z,14.40
2023-04-17T07:29:54.634Z,14.10
2023-04-17T07:32:27.283Z,13.93
2023-04-17T07:34:55.574Z,14.50
2023-04-17T07:37:24.665Z,13.80
2023-04-17T07:39:53.587Z,12.67
2023-04-17T07:42:23.043Z,13.70
2023-04-17T07:44:55.344Z,12.97
2023-04-17T07:47:24.108Z,26.73
2023-04-17T07:49:52.391Z,14.30
2023-04-17T07:52:20.721Z,12.23
2023-04-17T07:54:48.845Z,12.10
2023-04-17T07:57:18.185Z,11.33
2023-04-17T07:59:47.838Z,11.43
2023-04-17T08:02:16.842Z,12.10
2023-04-17T08:04:45.359Z,11.53
2023-04-17T08:07:18.279Z,11.37
2023-04-17T08:09:46.418Z,10.87
2023-04-17T08:12:14.530Z,11.50
2023-04-17T08:14:43.794Z,11.83
2023-04-17T08:17:13.439Z,11.07
2023-04-17T08:19:41.565Z,11.70
2023-04-17T08:22:10.704Z,10.77
2023-04-17T08:24:38.878Z,11.67
2023-04-17T08:27:07.933Z,10.60
2023-04-17T08:29:39.230Z,11.00
2023-04-17T08:32:14.769Z,11.00
2023-04-17T08:34:47.304Z,11.03
2023-04-17T08:37:17.999Z,11.17
2023-04-17T08:40:25.815Z,11.20
2023-04-17T08:42:55.193Z,10.80
2023-04-17T08:45:25.140Z,10.70
2023-04-17T08:47:53.472Z,10.67
2023-04-17T08:50:24.148Z,10.27
2023-04-17T08:52:53.141Z,10.30
2023-04-17T08:55:23.741Z,10.90
2023-04-17T08:57:56.322Z,10.43
2023-04-17T09:00:28.563Z,10.20
2023-04-17T09:03:03.726Z,9.90
2023-04-17T09:05:35.412Z,9.83
2023-04-17T09:08:14.518Z,9.83
2023-04-17T09:10:45.736Z,10.20
2023-04-17T09:13:15.818Z,9.60
2023-04-17T09:15:45.558Z,10.20
2023-04-17T09:18:25.336Z,10.00
2023-04-17T09:20:57.593Z,10.03
2023-04-17T09:23:30.287Z,9.70
2023-04-17T09:26:09.704Z,10.27
2023-04-17T09:28:39.686Z,10.60
2023-04-17T09:31:25.637Z,10.53
2023-04-17T09:33:58.296Z,10.03
2023-04-17T09:36:30.624Z,9.40
2023-04-17T09:39:00.933Z,9.60
2023-04-17T09:41:31.314Z,9.53
2023-04-17T09:44:02.244Z,9.33
2023-04-17T09:46:39.129Z,9.60
2023-04-17T09:49:11.109Z,9.13
2023-04-17T09:51:41.678Z,9.83
2023-04-17T09:54:11.853Z,9.60
2023-04-17T09:56:41.732Z,8.47
2023-04-17T09:59:10.374Z,9.10
2023-04-17T10:01:40.843Z,9.43
2023-04-17T10:04:09.525Z,8.13
2023-04-17T10:06:38.046Z,9.32
2023-04-17T10:09:08.086Z,10.47
2023-04-17T10:11:39.361Z,13.88
2023-04-17T10:14:14.002Z,9.05
2023-04-17T10:16:43.777Z,9.20
2023-04-17T10:19:32.454Z,9.52
2023-04-17T10:22:41.024Z,9.23
2023-04-17T10:25:22.166Z,9.30
2023-04-17T10:27:55.372Z,9.73
2023-04-17T10:30:24.305Z,9.13
2023-04-17T10:33:24.974Z,8.63
2023-04-17T10:35:53.699Z,8.70
2023-04-17T10:38:36.437Z,7.63
2023-04-17T10:41:09.351Z,8.90
2023-04-17T10:43:42.954Z,8.55
2023-04-17T10:46:12.416Z,8.70
2023-04-17T10:48:47.322Z,9.00
2023-04-17T10:51:42.072Z,8.70
2023-04-17T10:54:13.824Z,8.70
2023-04-17T10:56:46.151Z,8.10
2023-04-17T10:59:16.269Z,8.20
2023-04-17T11:02:01.190Z,8.40
2023-04-17T11:04:31.577Z,7.85
2023-04-17T11:07:00.017Z,7.95
2023-04-17T11:09:29.448Z,8.05
2023-04-17T11:12:03.396Z,7.63
2023-04-17T11:14:32.524Z,7.72
2023-04-17T11:17:02.294Z,7.43
2023-04-17T11:19:30.550Z,8.48
2023-04-17T11:22:01.552Z,9.27
2023-04-17T11:24:33.028Z,14.57
2023-04-17T11:27:03.411Z,7.57
2023-04-17T11:29:34.274Z,7.55
2023-04-17T11:32:02.433Z,6.65
2023-04-17T11:34:31.459Z,6.93
2023-04-17T11:37:01.248Z,6.57
2023-04-17T11:39:31.830Z,7.03
2023-04-17T11:42:06.349Z,7.43
2023-04-17T11:44:34.495Z,6.80
2023-04-17T11:47:04.072Z,6.82
2023-04-17T11:49:33.324Z,6.57
2023-04-17T11:52:03.547Z,7.47
2023-04-17T11:54:35.910Z,7.32
2023-04-17T11:57:07.795Z,6.82
2023-04-17T11:59:42.133Z,6.47
2023-04-17T12:02:10.864Z,7.07
2023-04-17T12:04:40.409Z,6.85
2023-04-17T12:07:21.817Z,6.68
2023-04-17T12:09:56.849Z,6.82
2023-04-17T12:12:26.631Z,7.00
2023-04-17T12:14:54.741Z,6.95
2023-04-17T12:17:22.873Z,6.47
2023-04-17T12:19:51.252Z,6.85
2023-04-17T12:22:23.317Z,6.82
2023-04-17T12:24:53.828Z,6.50
2023-04-17T12:27:22.043Z,6.20
2023-04-17T12:29:51.550Z,6.00
2023-04-17T12:32:19.873Z,7.78
2023-04-17T12:34:50.289Z,6.07
2023-04-17T12:37:19.848Z,6.72
2023-04-17T12:39:48.120Z,6.20
2023-04-17T12:42:16.700Z,6.05
2023-04-17T12:44:44.829Z,5.65
2023-04-17T12:47:14.306Z,5.78
2023-04-17T12:49:42.568Z,6.50
2023-04-17T12:52:11.395Z,5.95
2023-04-17T12:54:40.797Z,6.28
2023-04-17T12:57:09.952Z,6.80
2023-04-17T12:59:39.672Z,6.72
2023-04-17T13:02:08.215Z,6.20
2023-04-17T13:04:38.008Z,6.70
2023-04-17T13:07:10.300Z,6.38
2023-04-17T13:09:38.434Z,6.82
2023-04-17T13:12:07.314Z,5.78
2023-04-17T13:14:35.436Z,6.20
2023-04-17T13:17:04.349Z,6.13
2023-04-17T13:19:33.519Z,6.10
2023-04-17T13:22:06.847Z,6.22
2023-04-17T13:24:36.876Z,5.28
2023-04-17T13:27:06.102Z,5.88
2023-04-17T13:29:34.206Z,5.38
2023-04-17T13:32:02.304Z,5.95
2023-04-17T13:34:34.221Z,8.00
2023-04-17T13:37:02.454Z,5.32
2023-04-17T13:39:32.848Z,4.80
2023-04-17T13:42:00.996Z,4.80
2023-04-17T13:44:34.445Z,4.85
2023-04-17T13:47:03.709Z,9.10
2023-04-17T13:49:32.873Z,5.22
2023-04-17T13:52:01.091Z,4.82
2023-04-17T13:54:29.138Z,4.65
2023-04-17T13:57:02.317Z,4.40
2023-04-17T13:59:30.708Z,4.43
2023-04-17T14:02:00.345Z,4.78
2023-04-17T14:04:28.921Z,4.30
2023-04-17T14:06:59.479Z,4.28
2023-04-17T14:09:27.813Z,4.20
2023-04-17T14:11:59.283Z,5.00
2023-04-17T14:14:30.635Z,4.13
2023-04-17T14:16:58.856Z,4.28
2023-04-17T14:19:27.256Z,4.13
2023-04-17T14:21:55.710Z,4.13
2023-04-17T14:24:24.292Z,3.83
2023-04-17T14:26:52.543Z,3.88
2023-04-17T14:29:22.069Z,4.00
2023-04-17T14:31:51.021Z,3.97
2023-04-17T14:34:19.197Z,4.57
2023-04-17T14:36:48.771Z,4.53
2023-04-17T14:39:17.887Z,4.32
2023-04-17T14:41:46.191Z,4.30
2023-04-17T14:44:14.617Z,4.57
2023-04-17T14:46:44.939Z,4.55
2023-04-17T14:49:13.413Z,4.47
2023-04-17T14:51:41.723Z,4.72
2023-04-17T14:54:09.798Z,4.40
2023-04-17T14:56:41.268Z,4.60
2023-04-17T14:59:09.982Z,4.45
2023-04-17T15:01:38.215Z,5.15
2023-04-17T15:04:07.912Z,5.47
2023-04-17T15:06:42.575Z,5.15
2023-04-17T15:09:11.117Z,5.35
2023-04-17T15:11:39.585Z,5.05
2023-04-17T15:14:07.703Z,5.07
2023-04-17T15:16:35.869Z,5.07
2023-04-17T15:19:04.003Z,5.13
2023-04-17T15:21:33.592Z,5.32
2023-04-17T15:24:01.715Z,5.05
2023-04-17T15:26:30.140Z,5.57
2023-04-17T15:28:58.377Z,5.32
2023-04-17T15:31:27.027Z,5.68
2023-04-17T15:33:55.320Z,5.40
2023-04-17T15:36:23.470Z,5.20
2023-04-17T15:38:53.035Z,5.82
2023-04-17T15:41:21.270Z,5.78
2023-04-17T15:43:49.435Z,5.72
2023-04-17T15:46:18.456Z,6.13
2023-04-17T15:48:52.234Z,5.00
2023-04-17T15:51:33.080Z,5.20
2023-04-17T15:54:03.476Z,5.47
2023-04-17T15:56:31.660Z,5.80
2023-04-17T15:58:59.756Z,5.30
2023-04-17T16:01:28.745Z,5.28
2023-04-17T16:03:57.057Z,5.75
2023-04-17T16:06:25.964Z,5.15
2023-04-17T16:08:54.274Z,4.88
2023-04-17T16:11:23.927Z,5.07
2023-04-17T16:13:52.190Z,5.05
2023-04-17T16:16:20.715Z,5.35
2023-04-17T16:18:48.877Z,4.93
2023-04-17T16:21:17.889Z,5.68
2023-04-17T16:23:46.038Z,5.30
2023-04-17T16:26:15.953Z,5.07
2023-04-17T16:28:47.957Z,5.65
2023-04-17T16:31:17.589Z,5.82
2023-04-17T16:33:45.939Z,5.53
2023-04-17T16:36:16.321Z,5.35
2023-04-17T16:38:47.373Z,5.80
2023-04-17T16:41:15.901Z,5.60
2023-04-17T16:43:44.132Z,6.00
2023-04-17T16:46:23.738Z,5.75
2023-04-17T16:48:58.048Z,6.45
2023-04-17T16:51:26.250Z,6.20
2023-04-17T16:53:55.006Z,5.30
2023-04-17T16:56:23.090Z,5.70
2023-04-17T16:58:54.530Z,5.43
2023-04-17T17:01:24.226Z,5.30
2023-04-17T17:03:53.209Z,5.10
2023-04-17T17:06:21.933Z,21.43
2023-04-17T17:08:55.246Z,7.17
2023-04-17T17:11:24.530Z,5.50
2023-04-17T17:13:54.174Z,5.40
2023-04-17T17:16:23.867Z,5.90
2023-04-17T17:18:52.128Z,5.43
2023-04-17T17:21:21.565Z,5.33
2023-04-17T17:23:49.945Z,6.33
2023-04-17T17:26:18.380Z,5.97
2023-04-17T17:28:53.262Z,5.83
2023-04-17T17:31:23.038Z,7.83
2023-04-17T17:33:54.112Z,6.27
2023-04-17T17:36:22.662Z,9.73
2023-04-17T17:38:56.528Z,5.97
2023-04-17T17:41:24.990Z,5.80
2023-04-17T17:43:56.191Z,6.00
2023-04-17T17:46:27.089Z,6.00
2023-04-17T17:48:55.383Z,6.10
2023-04-17T17:51:24.404Z,6.60
2023-04-17T17:53:55.249Z,5.90
2023-04-17T17:56:23.848Z,6.00
2023-04-17T17:58:52.044Z,6.50
2023-04-17T18:01:20.786Z,9.50
2023-04-17T18:03:52.908Z,10.40
2023-04-17T18:06:25.109Z,6.17
2023-04-17T18:08:53.910Z,6.13
2023-04-17T18:11:23.223Z,6.37
2023-04-17T18:13:51.402Z,7.30
2023-04-17T18:16:19.763Z,6.63
2023-04-17T18:18:51.206Z,6.83
2023-04-17T18:21:20.713Z,6.80
2023-04-17T18:23:48.891Z,6.57
2023-04-17T18:26:17.001Z,6.07
2023-04-17T18:28:45.123Z,6.27
2023-04-17T18:31:13.477Z,6.80
2023-04-17T18:33:41.737Z,7.30
2023-04-17T18:36:11.970Z,6.80
2023-04-17T18:38:41.441Z,7.20
2023-04-17T18:41:09.629Z,8.00
2023-04-17T18:43:37.881Z,7.40
2023-04-17T18:46:07.668Z,7.50
2023-04-17T18:48:39.972Z,7.60
2023-04-17T18:51:11.453Z,7.30
2023-04-17T18:53:41.138Z,7.60
2023-04-17T18:56:16.510Z,7.50
2023-04-17T18:58:44.631Z,7.27
2023-04-17T19:01:12.833Z,7.93
2023-04-17T19:03:41.044Z,7.20
2023-04-17T19:06:09.223Z,7.23
2023-04-17T19:08:43.390Z,7.80
2023-04-17T19:11:11.495Z,7.30
2023-04-17T19:13:39.964Z,8.43
2023-04-17T19:16:08.099Z,8.10
2023-04-17T19:18:36.183Z,8.47
2023-04-17T19:21:04.682Z,8.57
2023-04-17T19:23:33.050Z,9.60
2023-04-17T19:26:02.488Z,8.20
2023-04-17T19:28:31.464Z,8.53
2023-04-17T19:31:00.869Z,8.03
2023-04-17T19:33:28.977Z,8.23
2023-04-17T19:36:00.053Z,8.20
2023-04-17T19:38:32.358Z,8.20
2023-04-17T19:41:15.274Z,9.00
2023-04-17T19:43:43.507Z,8.73
2023-04-17T19:46:11.920Z,9.03
2023-04-17T19:48:41.060Z,8.77
2023-04-17T19:51:09.342Z,8.97
2023-04-17T19:53:40.069Z,9.40
2023-04-17T19:56:09.705Z,9.13
2023-04-17T19:58:42.116Z,9.37
2023-04-17T20:01:10.357Z,9.53
2023-04-17T20:03:40.010Z,9.53
2023-04-17T20:06:10.443Z,9.20
2023-04-17T20:08:38.489Z,9.57
2023-04-17T20:11:07.285Z,10.40
2023-04-17T20:13:36.060Z,12.23
2023-04-17T20:16:06.621Z,13.67
2023-04-17T20:18:35.286Z,17.33
2023-04-17T20:21:03.390Z,11.10
2023-04-17T20:23:32.075Z,9.60
2023-04-17T20:26:01.091Z,10.40
2023-04-17T20:28:29.202Z,9.80
2023-04-17T20:30:59.099Z,9.67
2023-04-17T20:33:30.243Z,10.00
2023-04-17T20:35:58.478Z,10.33
2023-04-17T20:38:28.102Z,10.17
2023-04-17T20:40:57.072Z,11.33
2023-04-17T20:43:25.213Z,10.80
2023-04-17T20:45:54.174Z,11.33
2023-04-17T20:48:25.185Z,10.70
2023-04-17T20:50:57.083Z,10.43
2023-04-17T20:53:25.241Z,11.17
2023-04-17T20:55:56.560Z,11.37
2023-04-17T20:58:25.999Z,10.73
2023-04-17T21:01:01.317Z,10.43
2023-04-17T21:03:35.243Z,10.90
2023-04-17T21:06:05.031Z,11.40
2023-04-17T21:08:34.108Z,14.40
2023-04-17T21:11:02.580Z,10.97
2023-04-17T21:13:30.720Z,11.83
2023-04-17T21:16:02.302Z,11.73
2023-04-17T21:18:30.510Z,12.00
2023-04-17T21:20:59.066Z,12.53
2023-04-17T21:23:28.520Z,12.37
2023-04-17T21:25:57.076Z,11.60
2023-04-17T21:28:26.121Z,11.43
2023-04-17T21:30:54.262Z,11.73
2023-04-17T21:33:23.129Z,11.90
2023-04-17T21:35:53.121Z,12.20
2023-04-17T21:38:22.123Z,11.27
2023-04-17T21:40:52.265Z,11.67
2023-04-17T21:43:20.528Z,11.77
2023-04-17T21:45:49.987Z,10.97
2023-04-17T21:48:18.433Z,11.67
2023-04-17T21:50:47.514Z,11.83
2023-04-17T21:53:15.901Z,12.27
2023-04-17T21:55:44.936Z,11.60
2023-04-17T21:58:14.500Z,12.70
2023-04-17T22:00:42.724Z,11.60
2023-04-17T22:03:13.837Z,11.87
2023-04-17T22:05:43.117Z,12.10
2023-04-17T22:08:12.131Z,10.97
2023-04-17T22:10:40.280Z,11.30
2023-04-17T22:13:10.117Z,11.90
2023-04-17T22:15:44.153Z,12.33
2023-04-17T22:18:13.127Z,12.10
2023-04-17T22:20:42.122Z,11.90
2023-04-17T22:23:10.237Z,12.20
2023-04-17T22:25:42.974Z,12.77
2023-04-17T22:28:11.117Z,12.87
2023-04-17T22:30:40.150Z,12.90
2023-04-17T22:33:10.313Z,12.80
2023-04-17T22:35:39.163Z,12.93
2023-04-17T22:38:07.266Z,12.27
2023-04-17T22:44:39.935Z,13.67
2023-04-17T22:47:09.429Z,13.27
2023-04-17T22:49:38.961Z,13.33
2023-04-17T22:52:10.273Z,12.60
2023-04-17T22:54:38.445Z,14.07
2023-04-17T22:57:07.184Z,13.83
2023-04-17T22:59:35.296Z,13.73
2023-04-17T23:02:04.478Z,13.43
2023-04-17T23:04:32.691Z,13.30
2023-04-17T23:07:05.147Z,13.93
2023-04-17T23:09:51.158Z,13.80
2023-04-17T23:12:37.939Z,14.73
2023-04-17T23:15:10.155Z,15.73
2023-04-17T23:17:38.295Z,14.87
2023-04-17T23:20:07.577Z,15.77
2023-04-17T23:22:37.214Z,15.73
2023-04-17T23:25:06.871Z,16.33
2023-04-17T23:27:37.428Z,16.07
2023-04-17T23:30:06.497Z,16.33
2023-04-17T23:32:35.103Z,16.13
2023-04-17T23:35:03.457Z,15.90
2023-04-17T23:37:32.193Z,15.53
2023-04-17T23:40:02.052Z,16.30
2023-04-17T23:42:34.172Z,15.40
2023-04-17T23:45:02.611Z,15.27
2023-04-17T23:47:30.856Z,15.70
2023-04-17T23:49:59.033Z,15.37
2023-04-17T23:52:27.913Z,15.50
2023-04-17T23:54:57.199Z,15.07
2023-04-17T23:57:27.216Z,15.60
2023-04-17T23:59:55.950Z,14.97
